Pine Ridge, Idaho
Current Conditions -  °F | °C
As of 9:51 AM on Friday 28 Nov 2014 (Local Time) from KMYL Reporting Station
Light Rain Light Rain  
Wind Chill: 35°   Ceiling: 3800
Heat Index: 39°   Visibility: 10mi
Dew Point: 31°   Wind: 6mph
Humidity: 73%   Direction: 160°SSE
Pressure: 29.83"   Gusts: NA
Location:  44.9328°N, 116.572°W
Report Text: KMYL 281651Z AUTO 16005KT 10SM -RA FEW030 OVC038 04/M01 A2983 RMK AO2 PK WND 15029/1602 WSHFT 1538 RAB05 SLP112 P0000 T00391006
Loading
Personal Weather Stations






























Interactive Weather Map New forecast layout! Learn more

10-Day Weather Forecast

Advertisements
Track Severe Weather on mobile